Time;durP1;ratioP1;P1;durP2;ratioP2;P2;SDS_P1;SDS_P2;PMS_P1;PMS_P2;Temp;Humidity;BMP_temperature;BMP_pressure;BME280_temperature;BME280_humidity;BME280_pressure;Samples;Min_cycle;Max_cycle;Signal;HPM_P1;HPM_P2
2021/09/15 00:00:42;;;;;;;19.07;17.47;;;;;;;16.49;85.14;99429.72;4984263;28;20242;-83
2021/09/15 00:03:26;;;;;;;19.07;17.40;;;;;;;16.51;84.94;99433.00;4999768;28;20265;-84
2021/09/15 00:05:57;;;;;;;18.47;16.93;;;;;;;16.52;85.12;99444.59;4999762;28;20281;-88
2021/09/15 00:08:33;;;;;;;18.03;16.43;;;;;;;16.49;84.94;99439.75;4998511;28;20301;-87
2021/09/15 00:11:08;;;;;;;17.53;16.03;;;;;;;16.33;84.78;99419.91;4999359;28;20242;-87
2021/09/15 00:13:40;;;;;;;17.43;15.93;;;;;;;16.36;84.62;99429.41;4999288;28;20264;-82
2021/09/15 00:16:14;;;;;;;18.47;16.97;;;;;;;16.34;84.58;99434.22;4998707;28;20237;-87
2021/09/15 00:18:54;;;;;;;18.03;16.47;;;;;;;16.28;84.89;99423.38;5014584;28;20277;-84
2021/09/15 00:21:29;;;;;;;17.73;16.07;;;;;;;16.25;84.69;99429.34;5014537;28;20235;-83
2021/09/15 00:24:10;;;;;;;18.00;16.40;;;;;;;16.18;84.83;99426.06;4998619;28;20562;-85
2021/09/15 00:26:43;;;;;;;18.37;16.57;;;;;;;16.16;85.16;99420.09;4998823;28;20665;-89
2021/09/15 00:29:18;;;;;;;17.70;16.20;;;;;;;16.20;85.37;99429.28;5014565;28;20289;-89
2021/09/15 00:31:52;;;;;;;18.67;17.07;;;;;;;16.16;85.19;99422.78;4998721;28;20326;-88
2021/09/15 00:34:29;;;;;;;17.83;16.37;;;;;;;16.13;85.07;99417.91;5014148;28;20594;-90
2021/09/15 00:36:59;;;;;;;17.67;16.17;;;;;;;16.12;85.06;99423.56;4984177;28;20211;-84
2021/09/15 00:39:34;;;;;;;18.30;16.70;;;;;;;16.03;85.14;99414.31;4998966;28;20230;-91
2021/09/15 00:42:15;;;;;;;17.73;16.13;;;;;;;16.03;85.20;99425.94;5014414;28;20230;-82
2021/09/15 00:44:49;;;;;;;17.53;16.03;;;;;;;16.01;85.15;99427.28;4998827;28;20230;-87
2021/09/15 00:47:28;;;;;;;17.77;16.27;;;;;;;15.99;85.02;99418.63;4998424;28;20250;-91
2021/09/15 00:50:00;;;;;;;19.00;17.40;;;;;;;15.94;85.01;99421.28;4979580;28;20262;-87
2021/09/15 00:52:36;;;;;;;18.50;16.90;;;;;;;15.97;85.14;99424.28;4994531;28;20229;-84
2021/09/15 00:55:12;;;;;;;18.23;16.63;;;;;;;15.94;85.05;99424.81;4963548;28;20241;-83
2021/09/15 00:57:47;;;;;;;17.93;16.23;;;;;;;15.90;85.27;99422.88;4979344;28;20238;-90
2021/09/15 01:00:20;;;;;;;19.07;17.37;;;;;;;15.89;85.27;99427.47;4994551;28;20234;-86
2021/09/15 01:02:58;;;;;;;17.80;16.20;;;;;;;15.88;85.09;99433.13;4994077;28;20239;-84
2021/09/15 01:05:29;;;;;;;18.27;16.73;;;;;;;15.76;85.33;99417.94;4963751;28;20584;-81
2021/09/15 01:08:04;;;;;;;17.50;16.00;;;;;;;15.75;85.28;99423.56;4997968;28;20228;-83
2021/09/15 01:10:40;;;;;;;18.17;16.47;;;;;;;15.75;85.35;99420.88;4983139;28;20238;-87
2021/09/15 01:13:26;;;;;;;17.73;16.13;;;;;;;15.65;85.63;99416.19;4971569;28;20314;-83
2021/09/15 01:16:15;;;;;;;18.07;16.47;;;;;;;15.69;85.58;99414.63;4984680;28;20233;-84
2021/09/15 01:19:21;;;;;;;18.57;16.93;;;;;;;15.61;85.81;99407.00;4999398;28;20227;-93
2021/09/15 01:22:23;;;;;;;18.50;16.73;;;;;;;15.65;85.68;99415.38;4997369;28;20655;-81
2021/09/15 01:25:18;;;;;;;17.90;16.43;;;;;;;15.63;85.32;99409.44;4985849;28;20227;-90
2021/09/15 01:28:24;;;;;;;18.27;16.67;;;;;;;15.60;85.35;99418.03;4986266;28;20281;-85
2021/09/15 01:31:05;;;;;;;17.67;16.07;;;;;;;15.58;85.40;99409.41;4983432;28;20223;-81
2021/09/15 01:33:39;;;;;;;17.80;16.20;;;;;;;15.51;85.26;99397.97;4982142;28;20233;-93
2021/09/15 01:36:13;;;;;;;17.33;15.83;;;;;;;15.52;85.06;99413.94;4998341;28;20242;-86
2021/09/15 01:38:44;;;;;;;17.67;16.17;;;;;;;15.46;85.13;99406.00;4982685;28;20382;-85
2021/09/15 01:41:14;;;;;;;17.20;15.70;;;;;;;15.49;85.05;99410.91;4981937;28;20266;-82
2021/09/15 01:43:53;;;;;;;17.83;16.23;;;;;;;15.47;84.99;99413.03;4982758;28;20231;-84
2021/09/15 01:46:30;;;;;;;17.87;16.23;;;;;;;15.43;84.84;99412.75;4998633;28;20242;-85
2021/09/15 01:49:04;;;;;;;18.03;16.53;;;;;;;15.40;85.22;99419.44;4979441;28;20230;-93
2021/09/15 01:51:40;;;;;;;18.40;16.60;;;;;;;15.39;85.04;99417.03;5033449;28;20242;-85
2021/09/15 01:54:12;;;;;;;18.47;16.70;;;;;;;15.36;85.35;99409.44;5000934;28;20227;-87
2021/09/15 01:56:45;;;;;;;18.77;17.07;;;;;;;15.33;85.00;99412.66;5033672;28;20231;-84
2021/09/15 01:59:51;;;;;;;18.10;16.60;;;;;;;15.34;85.33;99416.97;4999168;28;20234;-87
2021/09/15 02:02:49;;;;;;;18.30;16.70;;;;;;;15.29;85.72;99417.75;5004418;28;20309;-86
2021/09/15 02:05:40;;;;;;;18.20;16.50;;;;;;;15.31;85.61;99417.47;4988608;28;20275;-81
2021/09/15 02:08:33;;;;;;;18.77;16.87;;;;;;;15.27;85.73;99422.56;5016859;28;20227;-87
2021/09/15 02:11:36;;;;;;;18.17;16.63;;;;;;;15.32;85.81;99413.72;5004593;28;20230;-88
2021/09/15 02:14:09;;;;;;;18.43;16.87;;;;;;;15.24;85.51;99406.91;5000845;28;20230;-91
2021/09/15 02:16:50;;;;;;;18.07;16.47;;;;;;;15.25;85.76;99405.84;5000976;28;20533;-83
2021/09/15 02:19:36;;;;;;;17.23;15.73;;;;;;;15.20;85.74;99405.78;5003057;28;20638;-87
2021/09/15 02:22:18;;;;;;;18.50;16.90;;;;;;;15.11;85.78;99393.00;5002880;28;20229;-81
2021/09/15 02:25:13;;;;;;;17.53;16.13;;;;;;;15.18;85.66;99404.38;4991302;28;20242;-86
2021/09/15 02:27:53;;;;;;;19.13;17.53;;;;;;;15.14;85.95;99401.41;5002061;28;20234;-80
2021/09/15 02:30:39;;;;;;;18.23;16.70;;;;;;;15.06;86.13;99393.75;4988454;28;20283;-81
2021/09/15 02:33:24;;;;;;;18.90;17.10;;;;;;;15.05;86.20;99388.63;5001669;28;20578;-81
2021/09/15 02:36:06;;;;;;;18.57;16.97;;;;;;;15.06;86.10;99398.34;5016446;28;20240;-84
2021/09/15 02:38:54;;;;;;;18.67;17.10;;;;;;;15.07;86.10;99410.78;5002524;28;20225;-83
2021/09/15 02:42:00;;;;;;;18.40;16.80;;;;;;;15.04;86.31;99403.97;4954519;28;20234;-90
2021/09/15 02:44:50;;;;;;;19.07;17.43;;;;;;;14.97;85.95;99401.50;5010902;28;20221;-83
2021/09/15 02:47:34;;;;;;;19.70;17.93;;;;;;;14.97;86.66;99415.00;5001962;28;20226;-81
2021/09/15 02:50:25;;;;;;;19.63;17.93;;;;;;;14.96;86.39;99416.06;4992262;28;20238;-86
2021/09/15 02:53:09;;;;;;;19.10;17.50;;;;;;;14.90;86.51;99408.97;5015632;28;20284;-86
2021/09/15 02:56:00;;;;;;;19.63;17.97;;;;;;;14.92;87.05;99409.53;5015791;28;20350;-81
2021/09/15 02:58:48;;;;;;;19.87;18.27;;;;;;;14.87;87.05;99404.09;5002687;28;20230;-83
2021/09/15 03:01:37;;;;;;;18.93;17.33;;;;;;;14.87;86.64;99409.47;5016221;28;20315;-90
2021/09/15 03:04:28;;;;;;;20.13;18.33;;;;;;;14.78;86.89;99404.78;5001255;28;20279;-81
2021/09/15 03:07:36;;;;;;;20.97;19.27;;;;;;;14.82;87.28;99405.91;5004614;28;20230;-86
2021/09/15 03:10:15;;;;;;;19.20;17.57;;;;;;;14.84;87.09;99409.97;4999859;28;20237;-85
2021/09/15 03:12:53;;;;;;;20.10;18.33;;;;;;;14.82;87.03;99412.13;4986138;28;20581;-81
2021/09/15 03:15:28;;;;;;;19.90;18.20;;;;;;;14.71;87.16;99393.34;5000408;28;20252;-85
2021/09/15 03:18:02;;;;;;;18.23;16.73;;;;;;;14.68;87.13;99399.25;5000088;28;20649;-85
2021/09/15 03:20:33;;;;;;;20.00;18.30;;;;;;;14.69;87.30;99396.31;5019044;28;20230;-83
2021/09/15 03:23:03;;;;;;;19.17;17.50;;;;;;;14.63;87.45;99383.84;5019205;28;20224;-89
2021/09/15 03:25:35;;;;;;;18.90;17.33;;;;;;;14.63;87.38;99397.31;5019559;28;20535;-83
2021/09/15 03:28:08;;;;;;;19.03;17.40;;;;;;;14.56;87.24;99379.72;5018535;28;20307;-90
2021/09/15 03:30:42;;;;;;;18.57;17.03;;;;;;;14.56;86.93;99390.50;5019117;28;20231;-89
2021/09/15 03:33:17;;;;;;;18.90;17.30;;;;;;;14.54;86.79;99377.25;5019725;28;20252;-82
2021/09/15 03:35:52;;;;;;;18.83;17.23;;;;;;;14.48;86.73;99372.88;5019221;28;20609;-83
2021/09/15 03:38:23;;;;;;;19.27;17.43;;;;;;;14.50;87.41;99381.53;5018525;28;20557;-82
2021/09/15 03:41:04;;;;;;;18.90;17.17;;;;;;;14.49;87.30;99378.03;5035039;28;20232;-85
2021/09/15 03:43:36;;;;;;;18.53;17.00;;;;;;;14.46;87.15;99383.88;5034315;28;20651;-88
2021/09/15 03:46:14;;;;;;;18.40;16.80;;;;;;;14.40;87.10;99374.13;5034535;28;20235;-89
2021/09/15 03:48:49;;;;;;;18.60;16.80;;;;;;;14.39;87.30;99374.38;5018997;28;20245;-81
2021/09/15 03:51:28;;;;;;;18.37;16.80;;;;;;;14.35;87.20;99370.53;5034256;28;20320;-82
2021/09/15 03:53:59;;;;;;;17.67;16.17;;;;;;;14.35;86.88;99375.91;5002954;28;20541;-86
2021/09/15 03:56:31;;;;;;;17.73;16.33;;;;;;;14.33;87.15;99380.72;5017905;28;20540;-89
2021/09/15 03:59:06;;;;;;;17.93;16.50;;;;;;;14.26;87.20;99367.44;5034501;28;20262;-81
2021/09/15 04:01:46;;;;;;;17.97;16.47;;;;;;;14.15;86.91;99362.97;5019366;28;20232;-85
2021/09/15 04:04:19;;;;;;;18.13;16.57;;;;;;;14.23;87.05;99384.09;5017731;28;20296;-81
2021/09/15 04:06:54;;;;;;;17.83;16.30;;;;;;;14.17;87.02;99374.34;5018208;28;20316;-88
2021/09/15 04:09:32;;;;;;;18.47;16.87;;;;;;;14.18;87.41;99380.53;5020085;28;20322;-81
2021/09/15 04:12:07;;;;;;;17.70;16.10;;;;;;;14.14;87.23;99379.41;5018367;28;20319;-84
2021/09/15 04:14:41;;;;;;;17.43;16.03;;;;;;;14.11;87.46;99375.31;5034321;28;20233;-93
2021/09/15 04:17:11;;;;;;;17.07;15.67;;;;;;;14.06;86.69;99373.38;5018417;28;20227;-81
2021/09/15 04:19:44;;;;;;;18.37;16.57;;;;;;;14.04;87.20;99378.19;5018108;28;20541;-81
2021/09/15 04:22:20;;;;;;;18.33;16.73;;;;;;;14.06;87.45;99375.25;5018108;28;20251;-85
2021/09/15 04:33:27;;;;;;;17.70;16.20;;;;;;;13.95;87.18;99382.34;5020495;28;20236;-85
2021/09/15 04:36:02;;;;;;;18.00;16.20;;;;;;;13.95;87.09;99382.34;5017975;28;20447;-80
2021/09/15 04:38:37;;;;;;;17.73;16.20;;;;;;;13.92;87.19;99376.66;5018023;28;20227;-80
2021/09/15 04:41:16;;;;;;;17.70;16.00;;;;;;;13.89;86.94;99375.28;5018632;28;20227;-81
2021/09/15 04:43:50;;;;;;;18.07;16.57;;;;;;;13.95;87.00;99390.44;5002614;28;20651;-84
2021/09/15 04:46:28;;;;;;;19.97;16.33;;;;;;;13.97;87.07;99395.59;5018154;28;20261;-87
2021/09/15 04:48:57;;;;;;;18.23;16.53;;;;;;;14.02;87.11;99409.13;5033405;28;20236;-88
2021/09/15 04:51:37;;;;;;;18.17;16.53;;;;;;;14.02;86.97;99396.47;5033695;28;20230;-85
2021/09/15 04:54:11;;;;;;;18.27;16.63;;;;;;;14.03;86.85;99390.03;5033301;28;20243;-91
2021/09/15 04:56:45;;;;;;;17.83;16.33;;;;;;;14.07;86.95;99401.13;5018518;28;20222;-83
2021/09/15 04:59:19;;;;;;;18.30;16.73;;;;;;;14.16;86.72;99398.81;5018628;28;20578;-85
2021/09/15 05:01:49;;;;;;;18.17;16.57;;;;;;;14.21;86.50;99399.72;5017953;28;20634;-84
2021/09/15 05:04:23;;;;;;;17.53;16.10;;;;;;;14.31;86.67;99396.34;5033360;28;20239;-91
2021/09/15 05:07:15;;;;;;;17.57;15.83;;;;;;;14.38;86.40;99397.00;5020761;28;20231;-87
2021/09/15 05:09:49;;;;;;;17.73;16.23;;;;;;;14.41;86.05;99397.31;5033851;28;20539;-88
2021/09/15 05:12:18;;;;;;;17.37;15.97;;;;;;;14.51;86.10;99396.66;5017141;28;20258;-81
2021/09/15 05:14:50;;;;;;;18.00;16.50;;;;;;;14.59;85.45;99392.69;5017570;28;20310;-85
2021/09/15 05:17:21;;;;;;;20.87;18.40;;;;;;;14.60;85.41;99384.34;5018329;28;20256;-83
2021/09/15 05:19:55;;;;;;;19.40;17.50;;;;;;;14.82;85.51;99398.63;5002213;28;20236;-86
2021/09/15 05:22:23;;;;;;;17.90;16.20;;;;;;;14.90;85.05;99392.78;5016957;28;20255;-84
2021/09/15 05:25:01;;;;;;;15.93;14.43;;;;;;;15.03;84.81;99399.66;5033520;28;20227;-87
2021/09/15 05:27:42;;;;;;;17.53;16.03;;;;;;;15.13;84.91;99396.25;5017999;28;20229;-82
2021/09/15 05:30:15;;;;;;;17.43;15.93;;;;;;;15.30;84.35;99405.84;5033160;28;20239;-83
2021/09/15 05:32:51;;;;;;;18.00;16.40;;;;;;;15.38;83.84;99391.09;5003231;28;20306;-83
2021/09/15 05:35:26;;;;;;;18.50;16.70;;;;;;;15.58;83.74;99393.19;5018051;28;20328;-81
2021/09/15 05:38:09;;;;;;;17.87;16.03;;;;;;;15.74;83.42;99401.16;5018281;28;20228;-82
2021/09/15 05:40:51;;;;;;;17.17;15.50;;;;;;;15.86;83.23;99390.19;5018958;28;20504;-83
2021/09/15 05:43:23;;;;;;;17.63;16.07;;;;;;;16.01;83.04;99390.25;5018142;28;20236;-92
2021/09/15 05:45:50;;;;;;;17.03;15.53;;;;;;;16.14;82.49;99391.72;5001261;28;20570;-93
2021/09/15 05:48:18;;;;;;;19.03;17.43;;;;;;;16.23;82.23;99393.66;5000611;28;20234;-90
2021/09/15 05:50:46;;;;;;;18.13;16.63;;;;;;;16.41;81.87;99397.78;5027477;28;20279;-94
2021/09/15 05:53:15;;;;;;;17.93;16.33;;;;;;;16.54;81.49;99391.91;5020137;28;20227;-92
2021/09/15 05:55:45;;;;;;;19.20;17.60;;;;;;;16.68;81.29;99403.06;5020952;28;20232;-89
2021/09/15 05:58:17;;;;;;;17.83;16.23;;;;;;;16.83;81.23;99402.31;5035388;28;20316;-82
2021/09/15 06:00:51;;;;;;;18.23;16.60;;;;;;;17.04;80.29;99409.41;5004677;28;20253;-84
2021/09/15 06:03:25;;;;;;;17.20;15.90;;;;;;;17.18;80.04;99405.09;5020134;28;20648;-90
2021/09/15 06:06:19;;;;;;;18.33;16.70;;;;;;;17.32;80.04;99410.81;5035347;28;20611;-85
2021/09/15 06:08:52;;;;;;;17.53;16.00;;;;;;;17.46;79.59;99410.03;5021021;28;20541;-83
2021/09/15 06:11:27;;;;;;;17.40;15.63;;;;;;;17.59;79.08;99404.09;5002074;28;20234;-82
2021/09/15 06:14:01;;;;;;;18.10;16.37;;;;;;;17.75;78.21;99418.47;5018022;28;20222;-86
2021/09/15 06:16:34;;;;;;;17.47;15.97;;;;;;;17.91;77.57;99403.84;5035234;28;20225;-86
2021/09/15 06:19:05;;;;;;;16.83;15.43;;;;;;;17.98;77.12;99396.22;5017101;28;20301;-85
2021/09/15 06:22:03;;;;;;;16.90;15.43;;;;;;;18.09;76.28;99391.63;5020617;28;20230;-83
2021/09/15 06:24:56;;;;;;;17.77;16.27;;;;;;;18.28;76.14;99391.84;5002928;28;20242;-81
2021/09/15 06:27:27;;;;;;;17.67;16.17;;;;;;;18.32;75.44;99385.59;5045314;28;20237;-83
2021/09/15 06:29:57;;;;;;;18.67;16.97;;;;;;;18.44;74.83;99380.66;5020261;28;20230;-88
2021/09/15 06:32:26;;;;;;;17.70;16.10;;;;;;;18.61;74.63;99393.13;5035553;28;20228;-84
2021/09/15 06:34:55;;;;;;;18.53;16.97;;;;;;;18.55;74.33;99388.78;5019396;28;20315;-81
2021/09/15 06:37:24;;;;;;;18.77;17.07;;;;;;;18.64;75.25;99396.06;5003732;28;20309;-84
2021/09/15 06:39:53;;;;;;;18.33;16.63;;;;;;;18.77;75.79;99392.75;5035918;28;20245;-82
2021/09/15 06:42:20;;;;;;;18.37;16.53;;;;;;;18.87;74.88;99381.03;5019170;28;20241;-82
2021/09/15 06:44:48;;;;;;;18.63;17.03;;;;;;;19.04;74.70;99397.78;5036656;28;20233;-84
2021/09/15 06:47:16;;;;;;;17.57;16.17;;;;;;;19.10;74.21;99374.94;5019505;28;20237;-87
2021/09/15 06:49:45;;;;;;;18.00;16.27;;;;;;;19.25;72.95;99382.19;5019412;28;20645;-88
2021/09/15 06:52:13;;;;;;;18.33;16.57;;;;;;;19.40;72.88;99373.09;5015675;28;20227;-86
2021/09/15 06:54:40;;;;;;;18.33;16.60;;;;;;;19.52;72.37;99379.81;4999632;28;20233;-84
2021/09/15 06:57:08;;;;;;;16.90;15.50;;;;;;;19.70;71.93;99384.56;4999695;28;20238;-85
2021/09/15 06:59:36;;;;;;;16.60;15.00;;;;;;;19.77;70.72;99381.53;4984064;28;20306;-83
2021/09/15 07:02:03;;;;;;;15.53;14.20;;;;;;;19.99;69.80;99383.75;4983093;28;20255;-83
2021/09/15 07:04:29;;;;;;;14.50;13.00;;;;;;;20.10;68.42;99386.09;4998679;28;20653;-85
2021/09/15 07:06:57;;;;;;;14.53;13.20;;;;;;;20.34;66.90;99388.06;4999458;28;20325;-88
2021/09/15 07:09:23;;;;;;;14.70;13.40;;;;;;;20.41;65.91;99383.06;5016474;28;20250;-84
2021/09/15 07:11:50;;;;;;;15.03;13.53;;;;;;;20.37;65.76;99384.75;5015615;28;20231;-84
2021/09/15 07:14:17;;;;;;;15.07;13.47;;;;;;;20.52;64.88;99381.84;4998829;28;20231;-87
2021/09/15 07:16:44;;;;;;;15.17;13.80;;;;;;;20.54;64.44;99369.56;4999353;28;20551;-88
2021/09/15 07:19:10;;;;;;;14.67;13.33;;;;;;;20.70;64.01;99389.25;5031897;28;20223;-90
2021/09/15 07:21:37;;;;;;;15.27;13.97;;;;;;;20.65;63.98;99376.53;4999254;28;20232;-83
2021/09/15 07:24:04;;;;;;;15.10;13.63;;;;;;;20.80;63.91;99386.41;5014971;28;20233;-85
2021/09/15 07:26:31;;;;;;;14.83;13.50;;;;;;;20.82;63.36;99386.09;5004365;28;20247;-82
2021/09/15 07:28:58;;;;;;;14.40;13.10;;;;;;;20.86;63.05;99387.13;5018745;28;20263;-84
2021/09/15 07:31:25;;;;;;;15.77;14.27;;;;;;;20.90;63.70;99380.81;5018842;28;20230;-82
2021/09/15 07:33:51;;;;;;;14.90;13.53;;;;;;;20.99;62.44;99383.69;5018424;28;20234;-87
2021/09/15 07:36:18;;;;;;;16.03;14.43;;;;;;;21.15;62.63;99381.59;5018165;28;20252;-85
2021/09/15 07:38:45;;;;;;;15.67;14.27;;;;;;;21.10;61.73;99380.53;5018307;28;20242;-89
2021/09/15 07:41:12;;;;;;;15.57;14.07;;;;;;;20.99;62.47;99386.44;5035093;28;20315;-83
2021/09/15 07:43:39;;;;;;;15.57;14.10;;;;;;;21.21;62.50;99383.13;5018219;28;20253;-83
2021/09/15 07:46:06;;;;;;;16.60;14.27;;;;;;;21.39;61.19;99390.50;5034406;28;20236;-82
2021/09/15 07:48:33;;;;;;;15.77;13.57;;;;;;;21.41;61.17;99382.84;5001653;28;20234;-86
2021/09/15 07:51:00;;;;;;;15.17;13.60;;;;;;;21.65;61.48;99388.97;5034664;28;20281;-86
2021/09/15 07:53:27;;;;;;;14.83;13.53;;;;;;;21.73;60.84;99398.41;5034490;28;20236;-84
2021/09/15 07:55:54;;;;;;;14.90;13.60;;;;;;;21.99;60.63;99388.69;5034486;28;20241;-87
2021/09/15 07:58:22;;;;;;;16.13;13.97;;;;;;;22.18;59.37;99400.34;5014119;28;20236;-84
2021/09/15 08:00:48;;;;;;;14.87;13.50;;;;;;;22.07;59.98;99384.47;5014731;28;20363;-87
2021/09/15 08:03:15;;;;;;;15.90;14.50;;;;;;;21.99;58.86;99390.59;5014622;28;20227;-85
2021/09/15 08:05:42;;;;;;;16.60;14.70;;;;;;;22.28;58.77;99396.63;5014520;28;20320;-83
2021/09/15 08:08:12;;;;;;;15.30;13.83;;;;;;;22.48;57.91;99403.63;5030412;28;20601;-88
2021/09/15 08:10:40;;;;;;;15.20;13.87;;;;;;;22.70;57.56;99403.75;4998138;28;20289;-87
2021/09/15 08:13:08;;;;;;;16.20;14.70;;;;;;;22.67;57.70;99390.66;4998359;28;20238;-84
2021/09/15 08:15:35;;;;;;;16.03;14.53;;;;;;;22.88;56.71;99389.16;5014379;28;20227;-85
2021/09/15 08:18:07;;;;;;;16.67;14.07;;;;;;;23.17;56.31;99388.78;5030396;28;20315;-83
2021/09/15 08:20:56;;;;;;;15.13;13.93;;;;;;;23.40;55.50;99381.41;5014554;28;20254;-88
2021/09/15 08:23:25;;;;;;;14.33;12.93;;;;;;;23.67;54.87;99387.59;5014395;28;20233;-83
2021/09/15 08:26:02;;;;;;;14.23;13.10;;;;;;;23.84;54.82;99378.72;5031546;28;20241;-83
2021/09/15 08:28:36;;;;;;;14.52;13.32;;;;;;;24.05;54.44;99385.25;5017741;28;20276;-84
2021/09/15 08:31:04;;;;;;;15.23;13.90;;;;;;;24.29;52.93;99386.84;5033994;28;20317;-85
2021/09/15 08:33:33;;;;;;;15.45;14.05;;;;;;;24.47;52.83;99383.06;5034112;28;20558;-83
2021/09/15 08:36:04;;;;;;;15.40;13.98;;;;;;;24.55;52.10;99388.56;5033352;28;20234;-88
2021/09/15 08:38:34;;;;;;;15.20;13.57;;;;;;;24.58;51.76;99389.88;5034865;28;20719;-84
2021/09/15 08:41:04;;;;;;;14.95;13.27;;;;;;;24.81;51.05;99396.06;5033593;28;20296;-86
2021/09/15 08:43:36;;;;;;;15.80;13.40;;;;;;;24.90;51.19;99377.72;5017658;28;20677;-83
2021/09/15 08:46:13;;;;;;;14.52;13.13;;;;;;;25.08;51.07;99381.28;5033313;28;20280;-87
2021/09/15 08:48:45;;;;;;;14.23;12.77;;;;;;;25.24;50.13;99380.47;5032877;28;20221;-86
2021/09/15 08:51:17;;;;;;;14.50;13.07;;;;;;;25.40;49.24;99387.13;5017528;28;20612;-87
2021/09/15 08:53:53;;;;;;;14.65;13.32;;;;;;;25.44;49.47;99379.84;5018649;28;20234;-84
2021/09/15 08:56:22;;;;;;;16.25;13.43;;;;;;;25.58;49.17;99366.00;5017698;28;20227;-88
2021/09/15 08:58:54;;;;;;;14.15;12.43;;;;;;;25.74;48.70;99363.56;5033790;28;20560;-83
2021/09/15 09:01:25;;;;;;;14.48;13.02;;;;;;;25.90;48.19;99356.41;5017608;28;20235;-84
2021/09/15 09:03:58;;;;;;;14.20;12.90;;;;;;;25.95;48.10;99367.22;5017459;28;20241;-83
2021/09/15 09:06:35;;;;;;;14.30;12.95;;;;;;;26.01;48.01;99356.84;5014405;28;20287;-83
2021/09/15 09:09:05;;;;;;;14.68;12.93;;;;;;;26.20;46.88;99349.84;4998285;28;20236;-86
2021/09/15 09:11:39;;;;;;;14.57;13.18;;;;;;;26.46;46.56;99346.19;4998309;28;20575;-85
2021/09/15 09:14:11;;;;;;;13.80;12.45;;;;;;;26.49;46.66;99346.38;5013438;28;20237;-84
2021/09/15 09:16:49;;;;;;;13.55;12.10;;;;;;;26.50;46.69;99334.22;5013900;28;20226;-84
2021/09/15 09:19:27;;;;;;;13.38;12.07;;;;;;;26.72;46.45;99322.94;4982727;28;20237;-84
2021/09/15 09:22:00;;;;;;;13.00;11.68;;;;;;;26.92;45.65;99334.31;5018122;28;20217;-84
2021/09/15 09:24:30;;;;;;;12.35;11.10;;;;;;;26.90;46.29;99339.34;5033514;28;20264;-84
2021/09/15 09:27:03;;;;;;;12.23;11.23;;;;;;;27.15;45.86;99328.16;5035159;28;20651;-85
2021/09/15 09:29:43;;;;;;;12.43;11.32;;;;;;;27.36;44.32;99324.56;5022519;28;20231;-85
2021/09/15 09:32:18;;;;;;;11.52;10.52;;;;;;;27.65;44.24;99324.47;5021239;28;20309;-88
2021/09/15 09:34:52;;;;;;;12.02;10.90;;;;;;;27.76;44.34;99320.16;5006324;28;20321;-86
2021/09/15 09:37:22;;;;;;;13.35;11.05;;;;;;;28.00;43.54;99314.69;5037435;28;20508;-87
2021/09/15 09:40:02;;;;;;;11.75;10.65;;;;;;;28.13;43.27;99321.03;5021273;28;20230;-83
2021/09/15 09:42:38;;;;;;;11.65;10.75;;;;;;;28.24;43.32;99318.63;5021695;28;20233;-84
2021/09/15 09:45:16;;;;;;;11.43;10.32;;;;;;;28.63;41.96;99314.38;5022157;28;20222;-84
2021/09/15 09:47:46;;;;;;;10.85;9.80;;;;;;;28.70;42.12;99312.63;5020969;28;20657;-83
2021/09/15 09:50:19;;;;;;;11.93;10.77;;;;;;;29.04;41.38;99319.59;5020344;28;20304;-89
2021/09/15 09:53:03;;;;;;;11.05;10.02;;;;;;;29.23;41.33;99307.91;5017351;28;20581;-84
2021/09/15 09:55:37;;;;;;;11.25;10.02;;;;;;;29.05;41.38;99306.59;5017152;28;20247;-86
2021/09/15 09:58:07;;;;;;;12.73;9.88;;;;;;;29.33;41.16;99307.44;5036210;28;20300;-86
2021/09/15 10:00:40;;;;;;;10.63;9.60;;;;;;;29.43;40.41;99312.47;5036812;28;20277;-84
2021/09/15 10:03:09;;;;;;;10.52;9.55;;;;;;;29.45;39.49;99295.53;5020695;28;20233;-88
2021/09/15 10:05:40;;;;;;;11.73;9.82;;;;;;;29.33;40.15;99295.63;5020461;28;20559;-87
2021/09/15 10:08:09;;;;;;;10.38;9.32;;;;;;;29.42;40.47;99301.78;5003766;28;20715;-84
2021/09/15 10:10:43;;;;;;;12.07;9.02;;;;;;;29.34;40.50;99302.75;5004273;28;20234;-87
2021/09/15 10:13:15;;;;;;;10.00;9.15;;;;;;;29.55;40.03;99306.06;5020291;28;20230;-87
2021/09/15 10:16:02;;;;;;;10.32;9.30;;;;;;;29.73;39.46;99293.53;5020335;28;20684;-87
2021/09/15 10:18:36;;;;;;;10.73;9.05;;;;;;;29.54;38.75;99285.94;5020522;28;20242;-82
2021/09/15 10:21:07;;;;;;;10.10;9.10;;;;;;;29.75;38.76;99285.72;5020693;28;20332;-84
2021/09/15 10:23:48;;;;;;;13.02;9.32;;;;;;;29.82;38.81;99283.13;5020816;28;20234;-88
2021/09/15 10:26:36;;;;;;;9.57;8.70;;;;;;;29.74;39.29;99282.16;5019477;28;20215;-86
2021/09/15 10:29:28;;;;;;;9.43;8.45;;;;;;;29.82;38.79;99271.28;5035356;28;20654;-86
2021/09/15 10:32:13;;;;;;;10.60;9.60;;;;;;;29.76;38.96;99287.34;5036088;28;20565;-86
2021/09/15 10:34:43;;;;;;;9.52;8.73;;;;;;;29.61;39.33;99279.81;5019843;28;20273;-83
2021/09/15 10:37:13;;;;;;;10.20;9.20;;;;;;;29.69;38.91;99285.19;5035961;28;20309;-84
2021/09/15 10:39:56;;;;;;;9.77;8.77;;;;;;;29.87;39.88;99287.59;5036082;28;20249;-83
2021/09/15 10:42:46;;;;;;;9.93;9.02;;;;;;;29.91;39.13;99271.97;5035246;28;20234;-85
2021/09/15 10:45:19;;;;;;;9.77;8.98;;;;;;;30.14;39.18;99278.47;5035962;28;20505;-89
2021/09/15 10:47:59;;;;;;;10.77;9.20;;;;;;;29.78;39.89;99262.91;5036067;28;20230;-87
2021/09/15 10:50:33;;;;;;;9.73;8.85;;;;;;;29.88;39.11;99273.47;5000852;28;20233;-87
2021/09/15 10:53:04;;;;;;;9.40;8.55;;;;;;;29.89;38.57;99264.03;5016947;28;20234;-85
2021/09/15 10:55:53;;;;;;;9.15;8.43;;;;;;;30.08;38.97;99269.63;5017119;28;20237;-89
2021/09/15 10:58:37;;;;;;;10.35;9.15;;;;;;;30.21;38.09;99256.50;5035718;28;20245;-87
2021/09/15 11:01:12;;;;;;;9.32;8.35;;;;;;;30.23;38.03;99253.41;5020459;28;20668;-86
2021/09/15 11:03:55;;;;;;;9.35;8.50;;;;;;;30.26;37.68;99245.19;5035580;28;20325;-84
2021/09/15 11:06:34;;;;;;;9.10;8.20;;;;;;;30.28;37.44;99242.06;5019629;28;20225;-87
2021/09/15 11:09:03;;;;;;;8.48;7.68;;;;;;;30.31;37.59;99225.56;5019280;28;20245;-86
2021/09/15 11:11:35;;;;;;;7.82;7.05;;;;;;;30.38;37.12;99234.00;5019625;28;20320;-84
2021/09/15 11:14:09;;;;;;;8.52;7.45;;;;;;;30.28;36.94;99223.53;5034893;28;20645;-85
2021/09/15 11:16:41;;;;;;;8.45;7.68;;;;;;;30.56;36.79;99231.69;5019301;28;20280;-91
2021/09/15 11:19:10;;;;;;;7.75;6.97;;;;;;;30.54;37.23;99229.28;5019347;28;20226;-88
2021/09/15 11:21:53;;;;;;;7.50;6.88;;;;;;;30.63;37.50;99208.91;5036470;28;20638;-86
2021/09/15 11:24:26;;;;;;;8.68;8.00;;;;;;;30.69;37.32;99222.09;5019209;28;20313;-83
2021/09/15 11:26:57;;;;;;;8.48;7.72;;;;;;;30.58;37.79;99210.00;5036082;28;20241;-82
2021/09/15 11:29:36;;;;;;;11.13;7.30;;;;;;;30.53;37.71;99204.75;5035969;28;20280;-87
2021/09/15 11:32:08;;;;;;;8.93;7.35;;;;;;;30.52;37.73;99200.38;5002810;28;20353;-88
2021/09/15 11:34:42;;;;;;;7.40;6.70;;;;;;;30.67;37.25;99202.28;5034961;28;20308;-83
2021/09/15 11:37:22;;;;;;;8.05;7.25;;;;;;;30.59;36.89;99195.81;5019066;28;20739;-85
2021/09/15 11:39:56;;;;;;;8.00;7.03;;;;;;;30.61;37.28;99185.19;5035741;28;20221;-83
2021/09/15 11:42:28;;;;;;;8.32;7.47;;;;;;;30.51;36.83;99171.16;5035170;28;20230;-89
2021/09/15 11:45:15;;;;;;;11.10;7.68;;;;;;;30.64;36.75;99175.38;5019010;28;20226;-86
2021/09/15 11:47:48;;;;;;;8.52;7.63;;;;;;;30.61;36.24;99174.13;5018710;28;20259;-85
2021/09/15 11:50:22;;;;;;;8.38;7.65;;;;;;;30.64;36.20;99177.34;5017953;28;20578;-83
2021/09/15 11:52:58;;;;;;;9.25;7.43;;;;;;;30.43;36.40;99178.47;5018574;28;20225;-85
2021/09/15 11:55:30;;;;;;;8.10;7.35;;;;;;;30.42;37.61;99170.56;5019241;28;20312;-87
2021/09/15 11:58:03;;;;;;;7.90;7.20;;;;;;;30.43;37.05;99170.16;4998923;28;20247;-89
2021/09/15 12:00:39;;;;;;;8.07;7.15;;;;;;;30.50;36.44;99170.38;4999656;28;20244;-89
2021/09/15 12:03:07;;;;;;;8.07;7.20;;;;;;;30.33;36.85;99154.16;5007171;28;20305;-87
2021/09/15 12:05:36;;;;;;;9.68;7.85;;;;;;;30.29;37.33;99150.50;5018337;28;20226;-86